sensor_id;sensor_type;location;lat;lon;timestamp;P1;durP1;ratioP1;P2;durP2;ratioP2
50056;SDS011;36875;49.468;11.200;2023-12-04T00:00:26;3.72;;;2.28;;
50056;SDS011;36875;49.468;11.200;2023-12-04T00:02:54;3.33;;;2.35;;
50056;SDS011;36875;49.468;11.200;2023-12-04T00:05:20;4.03;;;2.20;;
50056;SDS011;36875;49.468;11.200;2023-12-04T00:07:45;2.65;;;2.10;;
50056;SDS011;36875;49.468;11.200;2023-12-04T00:10:11;3.58;;;2.60;;
50056;SDS011;36875;49.468;11.200;2023-12-04T00:12:36;3.08;;;2.00;;
50056;SDS011;36875;49.468;11.200;2023-12-04T00:15:03;3.70;;;2.40;;
50056;SDS011;36875;49.468;11.200;2023-12-04T00:17:29;3.10;;;2.13;;
50056;SDS011;36875;49.468;11.200;2023-12-04T00:19:55;2.45;;;2.05;;
50056;SDS011;36875;49.468;11.200;2023-12-04T00:22:20;3.13;;;2.30;;
50056;SDS011;36875;49.468;11.200;2023-12-04T00:24:46;3.50;;;2.15;;
50056;SDS011;36875;49.468;11.200;2023-12-04T00:27:11;2.40;;;1.92;;
50056;SDS011;36875;49.468;11.200;2023-12-04T00:29:37;3.08;;;1.80;;
50056;SDS011;36875;49.468;11.200;2023-12-04T00:32:04;3.75;;;2.22;;
50056;SDS011;36875;49.468;11.200;2023-12-04T00:34:30;3.28;;;2.20;;
50056;SDS011;36875;49.468;11.200;2023-12-04T00:36:56;3.13;;;2.13;;
50056;SDS011;36875;49.468;11.200;2023-12-04T00:39:21;2.75;;;2.00;;
50056;SDS011;36875;49.468;11.200;2023-12-04T00:41:47;3.17;;;1.90;;
50056;SDS011;36875;49.468;11.200;2023-12-04T00:44:12;3.25;;;2.28;;
50056;SDS011;36875;49.468;11.200;2023-12-04T00:46:38;2.72;;;2.20;;
50056;SDS011;36875;49.468;11.200;2023-12-04T00:49:05;3.53;;;1.83;;
50056;SDS011;36875;49.468;11.200;2023-12-04T00:51:36;2.97;;;2.08;;
50056;SDS011;36875;49.468;11.200;2023-12-04T00:54:02;3.53;;;2.00;;
50056;SDS011;36875;49.468;11.200;2023-12-04T00:56:28;2.30;;;1.90;;
50056;SDS011;36875;49.468;11.200;2023-12-04T00:58:53;3.03;;;2.08;;
50056;SDS011;36875;49.468;11.200;2023-12-04T01:01:18;1.98;;;1.75;;
50056;SDS011;36875;49.468;11.200;2023-12-04T01:03:44;2.88;;;2.10;;
50056;SDS011;36875;49.468;11.200;2023-12-04T01:06:20;2.92;;;2.20;;
50056;SDS011;36875;49.468;11.200;2023-12-04T01:08:47;2.58;;;1.85;;
50056;SDS011;36875;49.468;11.200;2023-12-04T01:11:13;2.97;;;1.90;;
50056;SDS011;36875;49.468;11.200;2023-12-04T01:13:39;3.08;;;1.95;;
50056;SDS011;36875;49.468;11.200;2023-12-04T01:16:05;2.85;;;1.80;;
50056;SDS011;36875;49.468;11.200;2023-12-04T01:18:31;2.33;;;1.75;;
50056;SDS011;36875;49.468;11.200;2023-12-04T01:20:56;2.17;;;1.70;;
50056;SDS011;36875;49.468;11.200;2023-12-04T01:23:23;3.38;;;2.13;;
50056;SDS011;36875;49.468;11.200;2023-12-04T01:25:49;2.38;;;1.90;;
50056;SDS011;36875;49.468;11.200;2023-12-04T01:28:14;1.98;;;1.70;;
50056;SDS011;36875;49.468;11.200;2023-12-04T01:30:40;2.60;;;1.92;;
50056;SDS011;36875;49.468;11.200;2023-12-04T01:33:05;3.22;;;1.75;;
50056;SDS011;36875;49.468;11.200;2023-12-04T01:35:33;2.53;;;1.60;;
50056;SDS011;36875;49.468;11.200;2023-12-04T01:37:59;2.03;;;1.80;;
50056;SDS011;36875;49.468;11.200;2023-12-04T01:40:26;2.50;;;1.70;;
50056;SDS011;36875;49.468;11.200;2023-12-04T01:42:52;2.40;;;1.75;;
50056;SDS011;36875;49.468;11.200;2023-12-04T01:45:20;1.88;;;1.60;;
50056;SDS011;36875;49.468;11.200;2023-12-04T01:47:46;2.42;;;1.90;;
50056;SDS011;36875;49.468;11.200;2023-12-04T01:50:11;2.47;;;1.60;;
50056;SDS011;36875;49.468;11.200;2023-12-04T01:52:37;2.60;;;1.85;;
50056;SDS011;36875;49.468;11.200;2023-12-04T01:55:05;3.47;;;1.80;;
50056;SDS011;36875;49.468;11.200;2023-12-04T01:57:35;1.92;;;1.48;;
50056;SDS011;36875;49.468;11.200;2023-12-04T02:00:00;1.95;;;1.60;;
50056;SDS011;36875;49.468;11.200;2023-12-04T02:02:26;2.03;;;1.42;;
50056;SDS011;36875;49.468;11.200;2023-12-04T02:04:53;3.38;;;1.90;;
50056;SDS011;36875;49.468;11.200;2023-12-04T02:07:20;1.88;;;1.50;;
50056;SDS011;36875;49.468;11.200;2023-12-04T02:09:46;2.40;;;1.50;;
50056;SDS011;36875;49.468;11.200;2023-12-04T02:12:11;2.47;;;1.75;;
50056;SDS011;36875;49.468;11.200;2023-12-04T02:14:38;1.77;;;1.40;;
50056;SDS011;36875;49.468;11.200;2023-12-04T02:17:04;1.95;;;1.65;;
50056;SDS011;36875;49.468;11.200;2023-12-04T02:19:31;2.25;;;1.60;;
50056;SDS011;36875;49.468;11.200;2023-12-04T02:21:56;2.13;;;1.48;;
50056;SDS011;36875;49.468;11.200;2023-12-04T02:24:23;2.45;;;1.52;;
50056;SDS011;36875;49.468;11.200;2023-12-04T02:26:52;1.70;;;1.60;;
50056;SDS011;36875;49.468;11.200;2023-12-04T02:29:21;1.63;;;1.50;;
50056;SDS011;36875;49.468;11.200;2023-12-04T02:31:54;1.80;;;1.50;;
50056;SDS011;36875;49.468;11.200;2023-12-04T02:34:21;2.15;;;1.70;;
50056;SDS011;36875;49.468;11.200;2023-12-04T02:36:49;2.05;;;1.55;;
50056;SDS011;36875;49.468;11.200;2023-12-04T02:39:16;1.80;;;1.50;;
50056;SDS011;36875;49.468;11.200;2023-12-04T02:41:43;2.75;;;1.65;;
50056;SDS011;36875;49.468;11.200;2023-12-04T02:44:09;2.25;;;1.50;;
50056;SDS011;36875;49.468;11.200;2023-12-04T02:46:34;1.90;;;1.55;;
50056;SDS011;36875;49.468;11.200;2023-12-04T02:49:00;2.15;;;1.52;;
50056;SDS011;36875;49.468;11.200;2023-12-04T02:51:25;2.13;;;1.60;;
50056;SDS011;36875;49.468;11.200;2023-12-04T02:53:51;2.22;;;1.60;;
50056;SDS011;36875;49.468;11.200;2023-12-04T02:56:16;2.20;;;1.48;;
50056;SDS011;36875;49.468;11.200;2023-12-04T02:58:43;1.63;;;1.23;;
50056;SDS011;36875;49.468;11.200;2023-12-04T03:01:09;2.08;;;1.27;;
50056;SDS011;36875;49.468;11.200;2023-12-04T03:03:34;2.33;;;1.60;;
50056;SDS011;36875;49.468;11.200;2023-12-04T03:06:00;1.58;;;1.45;;
50056;SDS011;36875;49.468;11.200;2023-12-04T03:08:25;2.03;;;1.40;;
50056;SDS011;36875;49.468;11.200;2023-12-04T03:10:51;2.03;;;1.42;;
50056;SDS011;36875;49.468;11.200;2023-12-04T03:13:16;1.98;;;1.35;;
50056;SDS011;36875;49.468;11.200;2023-12-04T03:15:43;1.70;;;1.38;;
50056;SDS011;36875;49.468;11.200;2023-12-04T03:18:09;1.88;;;1.35;;
50056;SDS011;36875;49.468;11.200;2023-12-04T03:20:34;1.98;;;1.33;;
50056;SDS011;36875;49.468;11.200;2023-12-04T03:23:00;1.48;;;1.20;;
50056;SDS011;36875;49.468;11.200;2023-12-04T03:25:25;2.60;;;1.52;;
50056;SDS011;36875;49.468;11.200;2023-12-04T03:27:51;1.63;;;1.40;;
50056;SDS011;36875;49.468;11.200;2023-12-04T03:30:16;1.45;;;1.30;;
50056;SDS011;36875;49.468;11.200;2023-12-04T03:32:43;1.73;;;1.40;;
50056;SDS011;36875;49.468;11.200;2023-12-04T03:35:09;2.10;;;1.42;;
50056;SDS011;36875;49.468;11.200;2023-12-04T03:37:34;1.40;;;1.17;;
50056;SDS011;36875;49.468;11.200;2023-12-04T03:40:01;1.55;;;1.33;;
50056;SDS011;36875;49.468;11.200;2023-12-04T03:42:26;1.40;;;1.20;;
50056;SDS011;36875;49.468;11.200;2023-12-04T03:44:52;2.17;;;1.50;;
50056;SDS011;36875;49.468;11.200;2023-12-04T03:47:17;1.73;;;1.30;;
50056;SDS011;36875;49.468;11.200;2023-12-04T03:49:44;1.50;;;1.33;;
50056;SDS011;36875;49.468;11.200;2023-12-04T03:52:10;2.00;;;1.40;;
50056;SDS011;36875;49.468;11.200;2023-12-04T03:54:35;1.73;;;1.40;;
50056;SDS011;36875;49.468;11.200;2023-12-04T03:57:00;1.55;;;1.40;;
50056;SDS011;36875;49.468;11.200;2023-12-04T03:59:26;1.73;;;1.23;;
50056;SDS011;36875;49.468;11.200;2023-12-04T04:01:51;1.40;;;1.20;;
50056;SDS011;36875;49.468;11.200;2023-12-04T04:04:17;1.35;;;1.20;;
50056;SDS011;36875;49.468;11.200;2023-12-04T04:06:44;1.48;;;1.23;;
50056;SDS011;36875;49.468;11.200;2023-12-04T04:09:09;1.48;;;1.17;;
50056;SDS011;36875;49.468;11.200;2023-12-04T04:11:35;1.30;;;1.10;;
50056;SDS011;36875;49.468;11.200;2023-12-04T04:14:00;1.52;;;1.25;;
50056;SDS011;36875;49.468;11.200;2023-12-04T04:16:26;1.75;;;1.10;;
50056;SDS011;36875;49.468;11.200;2023-12-04T04:18:51;1.45;;;1.17;;
50056;SDS011;36875;49.468;11.200;2023-12-04T04:21:17;1.85;;;1.40;;
50056;SDS011;36875;49.468;11.200;2023-12-04T04:23:43;2.58;;;1.20;;
50056;SDS011;36875;49.468;11.200;2023-12-04T04:26:09;1.33;;;1.10;;
50056;SDS011;36875;49.468;11.200;2023-12-04T04:28:34;1.23;;;1.00;;
50056;SDS011;36875;49.468;11.200;2023-12-04T04:31:00;1.63;;;1.27;;
50056;SDS011;36875;49.468;11.200;2023-12-04T04:33:25;1.83;;;1.27;;
50056;SDS011;36875;49.468;11.200;2023-12-04T04:35:51;1.52;;;1.30;;
50056;SDS011;36875;49.468;11.200;2023-12-04T04:38:16;1.35;;;1.13;;
50056;SDS011;36875;49.468;11.200;2023-12-04T04:40:43;1.38;;;1.10;;
50056;SDS011;36875;49.468;11.200;2023-12-04T04:43:09;1.33;;;1.10;;
50056;SDS011;36875;49.468;11.200;2023-12-04T04:45:35;1.10;;;1.00;;
50056;SDS011;36875;49.468;11.200;2023-12-04T04:48:01;1.75;;;1.30;;
50056;SDS011;36875;49.468;11.200;2023-12-04T04:50:26;1.60;;;1.00;;
50056;SDS011;36875;49.468;11.200;2023-12-04T04:52:51;1.80;;;1.23;;
50056;SDS011;36875;49.468;11.200;2023-12-04T04:55:17;1.17;;;1.05;;
50056;SDS011;36875;49.468;11.200;2023-12-04T04:57:44;1.65;;;1.20;;
50056;SDS011;36875;49.468;11.200;2023-12-04T05:00:10;1.70;;;1.10;;
50056;SDS011;36875;49.468;11.200;2023-12-04T05:02:36;1.63;;;1.15;;
50056;SDS011;36875;49.468;11.200;2023-12-04T05:05:02;1.23;;;1.13;;
50056;SDS011;36875;49.468;11.200;2023-12-04T05:07:29;1.27;;;1.10;;
50056;SDS011;36875;49.468;11.200;2023-12-04T05:09:56;0.93;;;0.93;;
50056;SDS011;36875;49.468;11.200;2023-12-04T05:12:22;1.27;;;1.10;;
50056;SDS011;36875;49.468;11.200;2023-12-04T05:14:49;1.83;;;1.30;;
50056;SDS011;36875;49.468;11.200;2023-12-04T05:17:14;1.27;;;1.08;;
50056;SDS011;36875;49.468;11.200;2023-12-04T05:19:39;1.17;;;0.98;;
50056;SDS011;36875;49.468;11.200;2023-12-04T05:22:05;1.27;;;1.08;;
50056;SDS011;36875;49.468;11.200;2023-12-04T05:24:31;1.45;;;1.20;;
50056;SDS011;36875;49.468;11.200;2023-12-04T05:26:56;1.67;;;1.13;;
50056;SDS011;36875;49.468;11.200;2023-12-04T05:29:22;1.90;;;1.17;;
50056;SDS011;36875;49.468;11.200;2023-12-04T05:31:49;1.42;;;1.15;;
50056;SDS011;36875;49.468;11.200;2023-12-04T05:34:14;1.38;;;1.10;;
50056;SDS011;36875;49.468;11.200;2023-12-04T05:36:40;1.23;;;1.00;;
50056;SDS011;36875;49.468;11.200;2023-12-04T05:39:05;1.02;;;0.93;;
50056;SDS011;36875;49.468;11.200;2023-12-04T05:41:31;1.00;;;0.90;;
50056;SDS011;36875;49.468;11.200;2023-12-04T05:43:56;1.42;;;1.25;;
50056;SDS011;36875;49.468;11.200;2023-12-04T05:46:22;1.23;;;1.13;;
50056;SDS011;36875;49.468;11.200;2023-12-04T05:48:49;1.30;;;0.93;;
50056;SDS011;36875;49.468;11.200;2023-12-04T05:51:14;1.83;;;1.17;;
50056;SDS011;36875;49.468;11.200;2023-12-04T05:53:40;2.05;;;1.00;;
50056;SDS011;36875;49.468;11.200;2023-12-04T05:56:06;4.38;;;1.67;;
50056;SDS011;36875;49.468;11.200;2023-12-04T05:58:34;3.15;;;1.83;;
50056;SDS011;36875;49.468;11.200;2023-12-04T06:00:59;2.95;;;1.92;;
50056;SDS011;36875;49.468;11.200;2023-12-04T06:03:25;4.22;;;2.10;;
50056;SDS011;36875;49.468;11.200;2023-12-04T06:05:51;3.60;;;2.30;;
50056;SDS011;36875;49.468;11.200;2023-12-04T06:08:17;2.35;;;1.75;;
50056;SDS011;36875;49.468;11.200;2023-12-04T06:10:42;4.45;;;2.05;;
50056;SDS011;36875;49.468;11.200;2023-12-04T06:13:08;3.53;;;2.08;;
50056;SDS011;36875;49.468;11.200;2023-12-04T06:15:33;3.88;;;1.90;;
50056;SDS011;36875;49.468;11.200;2023-12-04T06:17:59;3.20;;;1.80;;
50056;SDS011;36875;49.468;11.200;2023-12-04T06:20:24;8.63;;;2.00;;
50056;SDS011;36875;49.468;11.200;2023-12-04T06:22:52;9.20;;;2.30;;
50056;SDS011;36875;49.468;11.200;2023-12-04T06:25:18;4.45;;;2.30;;
50056;SDS011;36875;49.468;11.200;2023-12-04T06:27:44;8.20;;;2.40;;
50056;SDS011;36875;49.468;11.200;2023-12-04T06:30:10;8.65;;;2.38;;
50056;SDS011;36875;49.468;11.200;2023-12-04T06:32:36;7.38;;;2.78;;
50056;SDS011;36875;49.468;11.200;2023-12-04T06:35:02;8.40;;;2.75;;
50056;SDS011;36875;49.468;11.200;2023-12-04T06:37:28;9.27;;;3.58;;
50056;SDS011;36875;49.468;11.200;2023-12-04T06:39:55;12.52;;;3.85;;
50056;SDS011;36875;49.468;11.200;2023-12-04T06:42:24;6.78;;;3.28;;
50056;SDS011;36875;49.468;11.200;2023-12-04T06:44:51;10.45;;;3.42;;
50056;SDS011;36875;49.468;11.200;2023-12-04T06:47:17;16.48;;;3.72;;
50056;SDS011;36875;49.468;11.200;2023-12-04T06:49:43;9.60;;;3.58;;
50056;SDS011;36875;49.468;11.200;2023-12-04T06:52:09;9.60;;;3.70;;
50056;SDS011;36875;49.468;11.200;2023-12-04T06:54:34;9.48;;;3.33;;
50056;SDS011;36875;49.468;11.200;2023-12-04T06:57:01;11.00;;;3.75;;
50056;SDS011;36875;49.468;11.200;2023-12-04T06:59:27;14.30;;;3.53;;
50056;SDS011;36875;49.468;11.200;2023-12-04T07:01:52;9.35;;;3.30;;
50056;SDS011;36875;49.468;11.200;2023-12-04T07:04:18;8.18;;;3.50;;
50056;SDS011;36875;49.468;11.200;2023-12-04T07:06:46;11.30;;;3.70;;
50056;SDS011;36875;49.468;11.200;2023-12-04T07:09:12;10.85;;;3.67;;
50056;SDS011;36875;49.468;11.200;2023-12-04T07:11:38;10.38;;;4.78;;
50056;SDS011;36875;49.468;11.200;2023-12-04T07:14:05;10.73;;;3.90;;
50056;SDS011;36875;49.468;11.200;2023-12-04T07:16:30;10.25;;;4.00;;
50056;SDS011;36875;49.468;11.200;2023-12-04T07:18:56;14.13;;;3.83;;
50056;SDS011;36875;49.468;11.200;2023-12-04T07:21:21;10.43;;;3.53;;
50056;SDS011;36875;49.468;11.200;2023-12-04T07:23:47;13.15;;;3.28;;
50056;SDS011;36875;49.468;11.200;2023-12-04T07:26:12;11.98;;;3.55;;
50056;SDS011;36875;49.468;11.200;2023-12-04T07:28:38;10.95;;;3.60;;
50056;SDS011;36875;49.468;11.200;2023-12-04T07:31:05;7.93;;;2.80;;
50056;SDS011;36875;49.468;11.200;2023-12-04T07:33:31;8.18;;;2.85;;
50056;SDS011;36875;49.468;11.200;2023-12-04T07:35:56;6.43;;;3.10;;
50056;SDS011;36875;49.468;11.200;2023-12-04T07:38:22;6.82;;;3.00;;
50056;SDS011;36875;49.468;11.200;2023-12-04T07:40:47;7.45;;;3.25;;
50056;SDS011;36875;49.468;11.200;2023-12-04T07:43:13;7.28;;;2.90;;
50056;SDS011;36875;49.468;11.200;2023-12-04T07:45:41;6.45;;;3.28;;
50056;SDS011;36875;49.468;11.200;2023-12-04T07:48:08;7.40;;;3.17;;
50056;SDS011;36875;49.468;11.200;2023-12-04T07:50:33;7.35;;;3.00;;
50056;SDS011;36875;49.468;11.200;2023-12-04T07:52:59;7.97;;;2.95;;
50056;SDS011;36875;49.468;11.200;2023-12-04T07:55:24;7.63;;;2.80;;
50056;SDS011;36875;49.468;11.200;2023-12-04T07:57:50;8.38;;;3.00;;
50056;SDS011;36875;49.468;11.200;2023-12-04T08:00:16;5.65;;;2.83;;
50056;SDS011;36875;49.468;11.200;2023-12-04T08:02:43;8.07;;;3.70;;
50056;SDS011;36875;49.468;11.200;2023-12-04T08:05:11;10.02;;;3.67;;
50056;SDS011;36875;49.468;11.200;2023-12-04T08:07:37;7.78;;;3.70;;
50056;SDS011;36875;49.468;11.200;2023-12-04T08:10:03;7.03;;;3.10;;
50056;SDS011;36875;49.468;11.200;2023-12-04T08:12:31;8.20;;;3.30;;
50056;SDS011;36875;49.468;11.200;2023-12-04T08:14:58;4.85;;;2.97;;
50056;SDS011;36875;49.468;11.200;2023-12-04T08:17:24;6.68;;;3.40;;
50056;SDS011;36875;49.468;11.200;2023-12-04T08:19:50;5.70;;;3.00;;
50056;SDS011;36875;49.468;11.200;2023-12-04T08:22:16;5.78;;;2.83;;
50056;SDS011;36875;49.468;11.200;2023-12-04T08:24:42;6.53;;;2.50;;
50056;SDS011;36875;49.468;11.200;2023-12-04T08:27:08;5.93;;;3.00;;
50056;SDS011;36875;49.468;11.200;2023-12-04T08:29:33;5.20;;;2.70;;
50056;SDS011;36875;49.468;11.200;2023-12-04T08:31:59;6.05;;;2.70;;
50056;SDS011;36875;49.468;11.200;2023-12-04T08:34:25;7.13;;;2.80;;
50056;SDS011;36875;49.468;11.200;2023-12-04T08:36:50;6.38;;;2.40;;
50056;SDS011;36875;49.468;11.200;2023-12-04T08:39:17;3.97;;;2.40;;
50056;SDS011;36875;49.468;11.200;2023-12-04T08:41:44;6.07;;;2.40;;
50056;SDS011;36875;49.468;11.200;2023-12-04T08:44:11;5.05;;;2.47;;
50056;SDS011;36875;49.468;11.200;2023-12-04T08:46:36;4.75;;;2.28;;
50056;SDS011;36875;49.468;11.200;2023-12-04T08:49:02;2.92;;;2.08;;
50056;SDS011;36875;49.468;11.200;2023-12-04T08:51:27;8.48;;;2.40;;
50056;SDS011;36875;49.468;11.200;2023-12-04T08:53:53;4.20;;;2.30;;
50056;SDS011;36875;49.468;11.200;2023-12-04T08:56:20;4.65;;;1.98;;
50056;SDS011;36875;49.468;11.200;2023-12-04T08:58:45;7.57;;;2.72;;
50056;SDS011;36875;49.468;11.200;2023-12-04T09:01:11;5.75;;;2.28;;
50056;SDS011;36875;49.468;11.200;2023-12-04T09:03:36;4.75;;;2.35;;
50056;SDS011;36875;49.468;11.200;2023-12-04T09:06:02;6.25;;;2.33;;
50056;SDS011;36875;49.468;11.200;2023-12-04T09:08:28;7.53;;;2.63;;
50056;SDS011;36875;49.468;11.200;2023-12-04T09:10:53;6.00;;;2.28;;
50056;SDS011;36875;49.468;11.200;2023-12-04T09:13:20;4.15;;;2.20;;
50056;SDS011;36875;49.468;11.200;2023-12-04T09:15:46;4.85;;;1.98;;
50056;SDS011;36875;49.468;11.200;2023-12-04T09:18:11;6.38;;;2.63;;
50056;SDS011;36875;49.468;11.200;2023-12-04T09:20:37;5.78;;;2.47;;
50056;SDS011;36875;49.468;11.200;2023-12-04T09:23:02;5.32;;;2.28;;
50056;SDS011;36875;49.468;11.200;2023-12-04T09:25:28;6.43;;;2.55;;
50056;SDS011;36875;49.468;11.200;2023-12-04T09:27:54;4.50;;;2.25;;
50056;SDS011;36875;49.468;11.200;2023-12-04T09:30:20;4.82;;;2.10;;
50056;SDS011;36875;49.468;11.200;2023-12-04T09:32:46;4.13;;;2.22;;
50056;SDS011;36875;49.468;11.200;2023-12-04T09:35:12;6.30;;;2.15;;
50056;SDS011;36875;49.468;11.200;2023-12-04T09:37:37;4.35;;;2.00;;
50056;SDS011;36875;49.468;11.200;2023-12-04T09:40:03;4.28;;;2.08;;
50056;SDS011;36875;49.468;11.200;2023-12-04T09:42:30;5.80;;;2.22;;
50056;SDS011;36875;49.468;11.200;2023-12-04T09:44:56;4.00;;;2.20;;
50056;SDS011;36875;49.468;11.200;2023-12-04T09:47:24;5.00;;;2.50;;
50056;SDS011;36875;49.468;11.200;2023-12-04T09:49:51;3.35;;;1.90;;
50056;SDS011;36875;49.468;11.200;2023-12-04T09:52:20;5.00;;;1.98;;
50056;SDS011;36875;49.468;11.200;2023-12-04T09:54:46;2.58;;;1.90;;
50056;SDS011;36875;49.468;11.200;2023-12-04T09:57:11;2.95;;;1.65;;
50056;SDS011;36875;49.468;11.200;2023-12-04T09:59:38;5.45;;;2.03;;
50056;SDS011;36875;49.468;11.200;2023-12-04T10:02:04;3.38;;;1.77;;
50056;SDS011;36875;49.468;11.200;2023-12-04T10:04:31;2.92;;;1.80;;
50056;SDS011;36875;49.468;11.200;2023-12-04T10:06:57;3.20;;;1.92;;
50056;SDS011;36875;49.468;11.200;2023-12-04T10:09:22;2.92;;;1.80;;
50056;SDS011;36875;49.468;11.200;2023-12-04T10:11:49;3.30;;;1.77;;
50056;SDS011;36875;49.468;11.200;2023-12-04T10:14:17;3.05;;;1.65;;
50056;SDS011;36875;49.468;11.200;2023-12-04T10:16:43;3.38;;;1.77;;
50056;SDS011;36875;49.468;11.200;2023-12-04T10:19:16;3.22;;;1.80;;
50056;SDS011;36875;49.468;11.200;2023-12-04T10:21:45;3.13;;;1.50;;
50056;SDS011;36875;49.468;11.200;2023-12-04T10:24:12;3.25;;;1.65;;
50056;SDS011;36875;49.468;11.200;2023-12-04T10:26:38;3.35;;;1.90;;
50056;SDS011;36875;49.468;11.200;2023-12-04T10:29:16;2.55;;;1.70;;
50056;SDS011;36875;49.468;11.200;2023-12-04T10:31:41;3.05;;;1.40;;
50056;SDS011;36875;49.468;11.200;2023-12-04T10:34:07;4.50;;;1.90;;
50056;SDS011;36875;49.468;11.200;2023-12-04T10:36:34;3.97;;;1.80;;
50056;SDS011;36875;49.468;11.200;2023-12-04T10:39:02;3.35;;;1.98;;
50056;SDS011;36875;49.468;11.200;2023-12-04T10:41:31;3.92;;;1.63;;
50056;SDS011;36875;49.468;11.200;2023-12-04T10:43:56;3.75;;;1.75;;
50056;SDS011;36875;49.468;11.200;2023-12-04T10:46:23;3.58;;;2.00;;
50056;SDS011;36875;49.468;11.200;2023-12-04T10:48:49;4.78;;;2.05;;
50056;SDS011;36875;49.468;11.200;2023-12-04T10:51:15;3.42;;;1.60;;
50056;SDS011;36875;49.468;11.200;2023-12-04T10:53:42;5.40;;;1.98;;
50056;SDS011;36875;49.468;11.200;2023-12-04T10:56:09;6.72;;;1.80;;
50056;SDS011;36875;49.468;11.200;2023-12-04T10:58:40;2.33;;;1.50;;
50056;SDS011;36875;49.468;11.200;2023-12-04T11:01:06;2.70;;;1.80;;
50056;SDS011;36875;49.468;11.200;2023-12-04T11:03:36;3.97;;;1.60;;
50056;SDS011;36875;49.468;11.200;2023-12-04T11:06:08;4.28;;;1.80;;
50056;SDS011;36875;49.468;11.200;2023-12-04T11:08:36;3.90;;;1.60;;
50056;SDS011;36875;49.468;11.200;2023-12-04T11:11:04;2.83;;;1.60;;
50056;SDS011;36875;49.468;11.200;2023-12-04T11:13:37;3.37;;;1.37;;
50056;SDS011;36875;49.468;11.200;2023-12-04T11:16:07;2.67;;;1.52;;
50056;SDS011;36875;49.468;11.200;2023-12-04T11:18:37;3.35;;;1.70;;
50056;SDS011;36875;49.468;11.200;2023-12-04T11:21:08;4.15;;;1.65;;
50056;SDS011;36875;49.468;11.200;2023-12-04T11:23:36;4.72;;;1.45;;
50056;SDS011;36875;49.468;11.200;2023-12-04T11:26:02;2.13;;;1.30;;
50056;SDS011;36875;49.468;11.200;2023-12-04T11:28:30;3.80;;;1.50;;
50056;SDS011;36875;49.468;11.200;2023-12-04T11:30:59;2.05;;;1.38;;
50056;SDS011;36875;49.468;11.200;2023-12-04T11:33:26;6.53;;;1.60;;
50056;SDS011;36875;49.468;11.200;2023-12-04T11:35:51;4.50;;;1.88;;
50056;SDS011;36875;49.468;11.200;2023-12-04T11:38:17;3.53;;;1.80;;
50056;SDS011;36875;49.468;11.200;2023-12-04T11:40:43;2.03;;;1.30;;
50056;SDS011;36875;49.468;11.200;2023-12-04T11:45:54;4.13;;;1.30;;
50056;SDS011;36875;49.468;11.200;2023-12-04T11:48:34;2.83;;;1.50;;
50056;SDS011;36875;49.468;11.200;2023-12-04T11:51:01;2.92;;;1.45;;
50056;SDS011;36875;49.468;11.200;2023-12-04T11:53:27;4.28;;;1.38;;
50056;SDS011;36875;49.468;11.200;2023-12-04T11:55:54;2.63;;;1.48;;
50056;SDS011;36875;49.468;11.200;2023-12-04T11:58:22;3.65;;;1.50;;
50056;SDS011;36875;49.468;11.200;2023-12-04T12:00:47;3.38;;;1.45;;
50056;SDS011;36875;49.468;11.200;2023-12-04T12:03:19;4.95;;;1.52;;
50056;SDS011;36875;49.468;11.200;2023-12-04T12:05:46;2.60;;;1.42;;
50056;SDS011;36875;49.468;11.200;2023-12-04T12:08:14;5.22;;;1.60;;
50056;SDS011;36875;49.468;11.200;2023-12-04T12:10:39;2.85;;;1.48;;
50056;SDS011;36875;49.468;11.200;2023-12-04T12:13:05;2.17;;;1.20;;
50056;SDS011;36875;49.468;11.200;2023-12-04T12:15:32;2.22;;;1.45;;
50056;SDS011;36875;49.468;11.200;2023-12-04T12:17:58;3.60;;;1.40;;
50056;SDS011;36875;49.468;11.200;2023-12-04T12:20:25;4.20;;;1.42;;
50056;SDS011;36875;49.468;11.200;2023-12-04T12:22:51;3.63;;;1.52;;
50056;SDS011;36875;49.468;11.200;2023-12-04T12:25:17;4.55;;;1.50;;
50056;SDS011;36875;49.468;11.200;2023-12-04T12:27:45;4.90;;;1.80;;
50056;SDS011;36875;49.468;11.200;2023-12-04T12:30:11;4.70;;;1.55;;
50056;SDS011;36875;49.468;11.200;2023-12-04T12:32:36;4.95;;;1.85;;
50056;SDS011;36875;49.468;11.200;2023-12-04T12:35:02;3.42;;;1.80;;
50056;SDS011;36875;49.468;11.200;2023-12-04T12:37:34;3.15;;;1.75;;
50056;SDS011;36875;49.468;11.200;2023-12-04T12:40:00;4.28;;;1.80;;
50056;SDS011;36875;49.468;11.200;2023-12-04T12:42:26;5.53;;;2.10;;
50056;SDS011;36875;49.468;11.200;2023-12-04T12:44:53;5.35;;;2.20;;
50056;SDS011;36875;49.468;11.200;2023-12-04T12:47:19;4.38;;;2.00;;
50056;SDS011;36875;49.468;11.200;2023-12-04T12:49:45;4.13;;;2.03;;
50056;SDS011;36875;49.468;11.200;2023-12-04T12:52:10;4.38;;;2.10;;
50056;SDS011;36875;49.468;11.200;2023-12-04T12:54:38;5.18;;;2.30;;
50056;SDS011;36875;49.468;11.200;2023-12-04T12:57:05;4.63;;;2.15;;
50056;SDS011;36875;49.468;11.200;2023-12-04T12:59:30;7.72;;;2.00;;
50056;SDS011;36875;49.468;11.200;2023-12-04T13:01:56;4.22;;;2.35;;
50056;SDS011;36875;49.468;11.200;2023-12-04T13:04:25;34.30;;;29.92;;
50056;SDS011;36875;49.468;11.200;2023-12-04T13:06:50;24.75;;;21.08;;
50056;SDS011;36875;49.468;11.200;2023-12-04T13:09:16;22.75;;;19.63;;
50056;SDS011;36875;49.468;11.200;2023-12-04T13:11:45;20.65;;;17.73;;
50056;SDS011;36875;49.468;11.200;2023-12-04T13:14:10;19.52;;;16.98;;
50056;SDS011;36875;49.468;11.200;2023-12-04T13:16:36;18.83;;;15.48;;
50056;SDS011;36875;49.468;11.200;2023-12-04T13:19:02;16.48;;;14.75;;
50056;SDS011;36875;49.468;11.200;2023-12-04T13:21:27;15.57;;;13.80;;
50056;SDS011;36875;49.468;11.200;2023-12-04T13:23:54;18.23;;;13.48;;
50056;SDS011;36875;49.468;11.200;2023-12-04T13:26:20;16.52;;;12.93;;
50056;SDS011;36875;49.468;11.200;2023-12-04T13:28:48;13.45;;;12.02;;
50056;SDS011;36875;49.468;11.200;2023-12-04T13:31:13;13.15;;;11.25;;
50056;SDS011;36875;49.468;11.200;2023-12-04T13:33:39;12.90;;;11.25;;
50056;SDS011;36875;49.468;11.200;2023-12-04T13:36:05;12.35;;;10.80;;
50056;SDS011;36875;49.468;11.200;2023-12-04T13:38:31;12.40;;;10.90;;
50056;SDS011;36875;49.468;11.200;2023-12-04T13:40:59;14.02;;;10.13;;
50056;SDS011;36875;49.468;11.200;2023-12-04T13:43:33;12.38;;;9.93;;
50056;SDS011;36875;49.468;11.200;2023-12-04T13:46:18;10.40;;;9.23;;
50056;SDS011;36875;49.468;11.200;2023-12-04T13:48:43;10.25;;;9.15;;
50056;SDS011;36875;49.468;11.200;2023-12-04T13:51:09;9.60;;;6.68;;
50056;SDS011;36875;49.468;11.200;2023-12-04T13:53:36;7.03;;;5.72;;
50056;SDS011;36875;49.468;11.200;2023-12-04T13:56:04;8.52;;;5.20;;
50056;SDS011;36875;49.468;11.200;2023-12-04T13:58:46;7.50;;;5.10;;
50056;SDS011;36875;49.468;11.200;2023-12-04T14:01:14;11.65;;;5.00;;
50056;SDS011;36875;49.468;11.200;2023-12-04T14:03:44;9.15;;;4.30;;
50056;SDS011;36875;49.468;11.200;2023-12-04T14:06:10;12.50;;;4.45;;
50056;SDS011;36875;49.468;11.200;2023-12-04T14:08:35;6.30;;;4.32;;
50056;SDS011;36875;49.468;11.200;2023-12-04T14:11:01;7.43;;;4.30;;
50056;SDS011;36875;49.468;11.200;2023-12-04T14:13:27;9.98;;;4.32;;
50056;SDS011;36875;49.468;11.200;2023-12-04T14:15:52;9.77;;;4.38;;
50056;SDS011;36875;49.468;11.200;2023-12-04T14:18:18;8.10;;;4.20;;
50056;SDS011;36875;49.468;11.200;2023-12-04T14:20:45;9.07;;;3.63;;
50056;SDS011;36875;49.468;11.200;2023-12-04T14:23:10;10.18;;;3.90;;
50056;SDS011;36875;49.468;11.200;2023-12-04T14:25:36;8.98;;;4.13;;
50056;SDS011;36875;49.468;11.200;2023-12-04T14:28:01;6.82;;;3.40;;
50056;SDS011;36875;49.468;11.200;2023-12-04T14:30:27;7.30;;;3.67;;